createdAt,value
2017-11-10T00:00:56.501Z,6.70
2017-11-10T00:03:33.120Z,6.60
2017-11-10T00:06:07.223Z,6.70
2017-11-10T00:08:41.336Z,6.60
2017-11-10T00:11:15.489Z,6.60
2017-11-10T00:13:51.329Z,6.40
2017-11-10T00:16:24.752Z,6.40
2017-11-10T00:18:59.442Z,6.30
2017-11-10T00:21:32.812Z,6.40
2017-11-10T00:24:06.903Z,6.50
2017-11-10T00:26:40.936Z,6.50
2017-11-10T00:29:16.499Z,6.50
2017-11-10T00:31:49.759Z,6.50
2017-11-10T00:34:23.833Z,6.50
2017-11-10T00:36:57.224Z,6.60
2017-11-10T00:39:31.475Z,6.60
2017-11-10T00:42:05.456Z,6.60
2017-11-10T00:44:38.827Z,6.60
2017-11-10T00:47:15.008Z,6.50
2017-11-10T00:49:48.563Z,6.40
2017-11-10T00:52:27.201Z,6.30
2017-11-10T00:55:00.417Z,6.40
2017-11-10T00:57:33.730Z,6.50
2017-11-10T01:00:08.785Z,6.30
2017-11-10T01:02:42.829Z,6.40
2017-11-10T01:05:16.343Z,6.40
2017-11-10T01:07:50.487Z,6.50
2017-11-10T01:10:25.591Z,6.50
2017-11-10T01:12:59.809Z,6.50
2017-11-10T01:15:34.739Z,6.50
2017-11-10T01:18:09.613Z,6.40
2017-11-10T01:20:44.396Z,6.40
2017-11-10T01:23:17.733Z,6.40
2017-11-10T01:25:52.361Z,6.50
2017-11-10T01:28:26.502Z,6.40
2017-11-10T01:31:01.993Z,6.40
2017-11-10T01:33:36.306Z,6.50
2017-11-10T01:36:12.666Z,6.40
2017-11-10T01:38:47.625Z,6.30
2017-11-10T01:41:21.668Z,6.30
2017-11-10T01:43:55.783Z,6.30
2017-11-10T01:46:29.835Z,6.20
2017-11-10T01:49:04.979Z,6.20
2017-11-10T01:51:38.359Z,6.20
2017-11-10T01:54:13.120Z,6.30
2017-11-10T01:56:46.255Z,6.40
2017-11-10T01:59:20.939Z,6.30
2017-11-10T02:01:55.894Z,6.30
2017-11-10T02:04:30.089Z,6.20
2017-11-10T02:07:05.647Z,6.30
2017-11-10T02:09:39.684Z,6.40
2017-11-10T02:12:17.777Z,6.40
2017-11-10T02:14:58.014Z,6.40
2017-11-10T02:17:32.816Z,6.40
2017-11-10T02:20:06.880Z,6.40
2017-11-10T02:22:47.715Z,6.40
2017-11-10T02:25:24.078Z,6.50
2017-11-10T02:27:57.395Z,6.50
2017-11-10T02:30:30.641Z,6.40
2017-11-10T02:33:04.061Z,6.30
2017-11-10T02:35:38.445Z,6.40
2017-11-10T02:38:12.529Z,6.40
2017-11-10T02:40:45.882Z,6.50
2017-11-10T02:43:19.332Z,6.50
2017-11-10T02:45:52.624Z,6.40
2017-11-10T02:48:25.852Z,6.30
2017-11-10T02:50:59.265Z,6.30
2017-11-10T02:53:33.543Z,6.30
2017-11-10T02:56:07.946Z,6.20
2017-11-10T02:58:41.982Z,6.00
2017-11-10T03:01:15.172Z,6.00
2017-11-10T03:03:49.354Z,6.00
2017-11-10T03:06:22.596Z,6.00
2017-11-10T03:08:55.807Z,5.90
2017-11-10T03:11:31.450Z,5.80
2017-11-10T03:14:04.671Z,5.80
2017-11-10T03:16:38.143Z,5.80
2017-11-10T03:19:12.058Z,5.70
2017-11-10T03:21:45.499Z,5.70
2017-11-10T03:24:19.635Z,5.90
2017-11-10T03:26:54.215Z,6.00
2017-11-10T03:29:29.853Z,6.00
2017-11-10T03:32:03.300Z,6.20
2017-11-10T03:34:36.644Z,6.30
2017-11-10T03:37:10.164Z,6.40
2017-11-10T03:39:43.591Z,6.40
2017-11-10T03:42:22.667Z,6.40
2017-11-10T03:44:57.081Z,6.40
2017-11-10T03:47:33.259Z,6.30
2017-11-10T03:50:07.653Z,6.30
2017-11-10T03:52:42.032Z,6.40
2017-11-10T03:55:16.216Z,6.40
2017-11-10T03:57:52.873Z,6.30
2017-11-10T04:00:27.273Z,6.30
2017-11-10T04:03:04.382Z,6.40
2017-11-10T04:05:39.393Z,6.30
2017-11-10T04:08:13.636Z,6.40
2017-11-10T04:10:48.681Z,6.40
2017-11-10T04:13:22.012Z,6.40
2017-11-10T04:15:56.977Z,6.30
2017-11-10T04:18:32.571Z,6.30
2017-11-10T04:21:05.954Z,6.30
2017-11-10T04:23:39.680Z,6.30
2017-11-10T04:26:14.842Z,6.30
2017-11-10T04:28:49.556Z,6.40
2017-11-10T04:31:22.881Z,6.40
2017-11-10T04:34:00.089Z,6.40
2017-11-10T04:36:34.572Z,6.20
2017-11-10T04:39:08.670Z,6.20
2017-11-10T04:41:44.134Z,6.10
2017-11-10T04:44:19.036Z,6.20
2017-11-10T04:46:53.024Z,6.20
2017-11-10T04:49:27.003Z,6.30
2017-11-10T04:52:02.089Z,6.30
2017-11-10T04:54:36.055Z,6.20
2017-11-10T04:57:11.243Z,6.10
2017-11-10T04:59:45.482Z,5.90
2017-11-10T05:02:18.780Z,5.90
2017-11-10T05:04:52.769Z,6.10
2017-11-10T05:07:27.162Z,6.10
2017-11-10T05:10:02.764Z,6.20
2017-11-10T05:12:38.040Z,6.20
2017-11-10T05:15:13.635Z,6.20
2017-11-10T05:17:47.486Z,6.00
2017-11-10T05:20:21.645Z,6.00
2017-11-10T05:22:57.162Z,6.10
2017-11-10T05:25:31.125Z,6.20
2017-11-10T05:28:05.770Z,6.00
2017-11-10T05:30:40.005Z,6.20
2017-11-10T05:33:14.301Z,6.10
2017-11-10T05:35:48.943Z,6.20
2017-11-10T05:38:22.236Z,6.20
2017-11-10T05:40:55.642Z,6.10
2017-11-10T05:43:29.041Z,6.10
2017-11-10T05:46:03.190Z,5.90
2017-11-10T05:48:36.564Z,5.90
2017-11-10T05:51:10.624Z,5.70
2017-11-10T05:53:44.035Z,5.60
2017-11-10T05:56:17.441Z,5.70
2017-11-10T05:58:51.031Z,5.70
2017-11-10T06:01:25.202Z,5.40
2017-11-10T06:03:59.192Z,5.40
2017-11-10T06:06:32.310Z,5.40
2017-11-10T06:09:05.537Z,5.50
2017-11-10T06:11:38.907Z,5.60
2017-11-10T06:14:12.185Z,5.80
2017-11-10T06:16:45.519Z,6.00
2017-11-10T06:19:18.885Z,5.90
2017-11-10T06:21:52.432Z,5.90
2017-11-10T06:24:26.576Z,6.10
2017-11-10T06:26:59.752Z,6.10
2017-11-10T06:29:33.253Z,6.20
2017-11-10T06:32:06.550Z,6.30
2017-11-10T06:34:39.991Z,6.20
2017-11-10T06:37:16.487Z,6.30
2017-11-10T06:39:50.322Z,6.30
2017-11-10T06:42:26.584Z,6.10
2017-11-10T06:45:01.537Z,6.20
2017-11-10T06:47:37.604Z,6.20
2017-11-10T06:50:15.685Z,6.20
2017-11-10T06:52:52.485Z,6.20
2017-11-10T06:55:29.819Z,5.80
2017-11-10T06:58:03.707Z,5.80
2017-11-10T07:00:39.861Z,5.80
2017-11-10T07:03:13.361Z,5.80
2017-11-10T07:05:46.783Z,5.80
2017-11-10T07:08:23.814Z,5.80
2017-11-10T07:10:59.346Z,5.70
2017-11-10T07:13:33.608Z,5.60
2017-11-10T07:16:07.873Z,5.60
2017-11-10T07:18:41.817Z,5.60
2017-11-10T07:21:15.079Z,5.70
2017-11-10T07:23:49.435Z,5.80
2017-11-10T07:26:25.016Z,5.60
2017-11-10T07:29:00.253Z,5.60
2017-11-10T07:31:37.340Z,5.70
2017-11-10T07:34:11.781Z,5.70
2017-11-10T07:36:47.812Z,5.70
2017-11-10T07:39:24.254Z,5.70
2017-11-10T07:42:01.542Z,5.60
2017-11-10T07:44:36.237Z,5.70
2017-11-10T07:47:11.417Z,5.70
2017-11-10T07:49:45.419Z,5.80
2017-11-10T07:52:22.841Z,5.70
2017-11-10T07:54:57.009Z,5.70
2017-11-10T07:57:30.491Z,5.80
2017-11-10T08:00:04.057Z,5.90
2017-11-10T08:02:38.051Z,5.90
2017-11-10T08:05:11.890Z,5.80
2017-11-10T08:07:48.813Z,5.90
2017-11-10T08:10:23.509Z,6.00
2017-11-10T08:12:58.324Z,6.10
2017-11-10T08:15:34.958Z,6.20
2017-11-10T08:18:10.242Z,6.20
2017-11-10T08:20:46.727Z,6.20
2017-11-10T08:23:23.820Z,6.10
2017-11-10T08:26:03.996Z,6.10
2017-11-10T08:28:38.927Z,6.10
2017-11-10T08:31:15.455Z,6.10
2017-11-10T08:33:49.544Z,6.10
2017-11-10T08:36:25.928Z,6.00
2017-11-10T08:39:00.141Z,6.00
2017-11-10T08:41:34.218Z,6.20
2017-11-10T08:44:07.728Z,6.10
2017-11-10T08:46:44.053Z,6.20
2017-11-10T08:49:20.942Z,6.30
2017-11-10T08:51:57.889Z,6.30
2017-11-10T08:54:33.608Z,6.30
2017-11-10T08:57:08.674Z,6.40
2017-11-10T08:59:45.751Z,6.50
2017-11-10T09:02:26.129Z,6.40
2017-11-10T09:04:59.440Z,6.30
2017-11-10T09:07:33.016Z,6.30
2017-11-10T09:10:09.619Z,6.50
2017-11-10T09:12:46.296Z,6.60
2017-11-10T09:15:23.226Z,6.50
2017-11-10T09:18:01.699Z,6.30
2017-11-10T09:20:40.341Z,6.30
2017-11-10T09:23:16.807Z,6.30
2017-11-10T09:25:54.240Z,6.40
2017-11-10T09:28:47.039Z,6.40
2017-11-10T09:34:26.686Z,6.40
2017-11-10T09:40:17.705Z,6.30
2017-11-10T09:42:56.571Z,6.30
2017-11-10T09:45:48.530Z,6.30
2017-11-10T09:48:27.438Z,6.40
2017-11-10T09:51:07.060Z,6.30
2017-11-10T09:53:47.452Z,6.30
2017-11-10T10:02:17.025Z,6.30
2017-11-10T10:05:00.981Z,6.40
2017-11-10T10:07:55.178Z,6.40
2017-11-10T10:10:46.349Z,6.40
2017-11-10T10:13:37.975Z,6.40
2017-11-10T10:16:32.574Z,6.50
2017-11-10T10:19:17.434Z,6.60
2017-11-10T10:21:58.692Z,6.60
2017-11-10T10:24:36.412Z,6.60
2017-11-10T10:27:15.666Z,6.60
2017-11-10T10:29:50.970Z,6.60
2017-11-10T10:32:29.274Z,6.60
2017-11-10T10:35:05.415Z,6.70
2017-11-10T10:37:45.005Z,6.60
2017-11-10T10:40:22.432Z,6.70
2017-11-10T10:42:59.447Z,6.60
2017-11-10T10:45:35.841Z,6.70
2017-11-10T10:48:11.580Z,6.80
2017-11-10T10:50:48.115Z,6.80
2017-11-10T10:53:23.203Z,6.70
2017-11-10T10:55:57.634Z,6.60
2017-11-10T10:58:31.643Z,6.70
2017-11-10T11:01:08.002Z,6.60
2017-11-10T11:03:42.939Z,6.60
2017-11-10T11:06:18.279Z,6.60
2017-11-10T11:08:56.415Z,6.70
2017-11-10T11:11:29.684Z,6.60
2017-11-10T11:14:03.080Z,6.70
2017-11-10T11:16:38.030Z,6.80
2017-11-10T11:19:13.582Z,6.70
2017-11-10T11:21:46.980Z,6.80
2017-11-10T11:24:21.238Z,6.90
2017-11-10T11:26:55.284Z,6.80
2017-11-10T11:29:33.487Z,6.80
2017-11-10T11:32:09.213Z,6.80
2017-11-10T11:34:43.710Z,6.90
2017-11-10T11:37:18.405Z,6.90
2017-11-10T11:39:52.238Z,6.90
2017-11-10T11:42:26.412Z,6.90
2017-11-10T11:44:59.942Z,7.00
2017-11-10T11:47:33.710Z,7.10
2017-11-10T11:50:08.065Z,7.10
2017-11-10T11:52:43.771Z,7.00
2017-11-10T11:55:18.757Z,7.00
2017-11-10T11:57:53.378Z,7.00
2017-11-10T12:00:29.121Z,6.90
2017-11-10T12:03:02.615Z,6.90
2017-11-10T12:05:36.824Z,7.00
2017-11-10T12:08:12.174Z,7.10
2017-11-10T12:10:46.412Z,7.00
2017-11-10T12:13:19.816Z,6.60
2017-11-10T12:15:57.677Z,7.00
2017-11-10T12:18:31.627Z,7.00
2017-11-10T12:21:05.140Z,7.00
2017-11-10T12:23:38.386Z,7.10
2017-11-10T12:26:11.682Z,7.10
2017-11-10T12:28:44.988Z,7.10
2017-11-10T12:31:18.395Z,7.10
2017-11-10T12:33:51.564Z,7.10
2017-11-10T12:36:24.804Z,7.20
2017-11-10T12:38:58.828Z,7.20
2017-11-10T12:41:33.586Z,7.30
2017-11-10T12:44:06.925Z,7.30
2017-11-10T12:46:41.486Z,7.30
2017-11-10T12:49:17.697Z,7.40
2017-11-10T12:51:52.989Z,7.40
2017-11-10T12:54:27.002Z,7.40
2017-11-10T12:57:00.713Z,7.40
2017-11-10T12:59:34.164Z,7.40
2017-11-10T13:02:07.709Z,7.40
2017-11-10T13:04:41.595Z,7.40
2017-11-10T13:07:14.880Z,7.50
2017-11-10T13:09:49.107Z,7.50
2017-11-10T13:12:22.504Z,7.50
2017-11-10T13:14:56.652Z,7.40
2017-11-10T13:17:31.289Z,7.40
2017-11-10T13:20:04.697Z,7.40
2017-11-10T13:22:41.153Z,7.40
2017-11-10T13:25:15.224Z,7.40
2017-11-10T13:27:49.361Z,7.40
2017-11-10T13:30:23.746Z,7.40
2017-11-10T13:32:57.952Z,7.30
2017-11-10T13:35:31.380Z,7.20
2017-11-10T13:38:05.370Z,7.30
2017-11-10T13:40:38.992Z,7.20
2017-11-10T13:43:13.843Z,7.10
2017-11-10T13:45:48.069Z,7.10
2017-11-10T13:48:22.180Z,7.10
2017-11-10T13:50:55.671Z,7.00
2017-11-10T13:53:32.776Z,6.90
2017-11-10T13:56:08.021Z,7.00
2017-11-10T13:58:43.409Z,6.90
2017-11-10T14:01:17.315Z,7.00
2017-11-10T14:03:50.660Z,6.90
2017-11-10T14:06:24.572Z,7.00
2017-11-10T14:08:59.726Z,7.00
2017-11-10T14:11:34.185Z,6.90
2017-11-10T14:14:09.703Z,6.80
2017-11-10T14:16:46.517Z,6.80
2017-11-10T14:19:19.706Z,6.80
2017-11-10T14:21:53.745Z,6.70
2017-11-10T14:24:29.996Z,6.70
2017-11-10T14:27:04.304Z,6.70
2017-11-10T14:29:39.111Z,6.70
2017-11-10T14:32:15.949Z,6.70
2017-11-10T14:34:49.376Z,6.70
2017-11-10T14:37:22.617Z,6.70
2017-11-10T14:39:56.462Z,6.70
2017-11-10T14:42:30.498Z,6.70
2017-11-10T14:45:04.862Z,6.80
2017-11-10T14:47:39.385Z,6.80
2017-11-10T14:50:13.706Z,7.00
2017-11-10T14:52:47.193Z,7.10
2017-11-10T14:55:20.665Z,7.10
2017-11-10T14:57:54.646Z,7.00
2017-11-10T15:00:27.980Z,7.00
2017-11-10T15:03:02.071Z,7.00
2017-11-10T15:05:35.952Z,7.00
2017-11-10T15:08:09.223Z,7.00
2017-11-10T15:10:44.853Z,7.10
2017-11-10T15:13:18.312Z,7.10
2017-11-10T15:15:51.757Z,7.20
2017-11-10T15:18:25.089Z,7.20
2017-11-10T15:20:58.509Z,7.30
2017-11-10T15:23:31.811Z,7.20
2017-11-10T15:26:07.320Z,7.30
2017-11-10T15:28:40.900Z,7.30
2017-11-10T15:31:15.159Z,7.30
2017-11-10T15:33:49.308Z,7.30
2017-11-10T15:36:22.862Z,7.20
2017-11-10T15:38:56.185Z,7.30
2017-11-10T15:41:29.381Z,7.30
2017-11-10T15:44:02.590Z,7.40
2017-11-10T15:46:36.984Z,7.30
2017-11-10T15:49:10.904Z,7.40
2017-11-10T15:51:44.382Z,7.50
2017-11-10T15:54:17.768Z,7.50
2017-11-10T15:56:51.030Z,7.50
2017-11-10T15:59:24.279Z,7.50
2017-11-10T16:01:58.502Z,7.30
2017-11-10T16:04:31.871Z,7.30
2017-11-10T16:07:05.184Z,7.00
2017-11-10T16:09:38.436Z,6.90
2017-11-10T16:12:12.356Z,6.70
2017-11-10T16:14:45.577Z,6.70
2017-11-10T16:17:19.138Z,6.70
2017-11-10T16:19:54.140Z,6.50
2017-11-10T16:22:28.168Z,6.50
2017-11-10T16:25:02.314Z,6.50
2017-11-10T16:27:36.480Z,6.50
2017-11-10T16:30:10.676Z,6.50
2017-11-10T16:32:44.216Z,6.50
2017-11-10T16:35:18.278Z,6.50
2017-11-10T16:37:52.999Z,6.50
2017-11-10T16:40:26.388Z,6.50
2017-11-10T16:42:59.651Z,6.50
2017-11-10T16:45:32.833Z,6.50
2017-11-10T16:48:10.433Z,6.50
2017-11-10T16:50:45.397Z,6.50
2017-11-10T16:53:23.260Z,6.40
2017-11-10T16:55:56.844Z,6.50
2017-11-10T16:58:30.032Z,6.50
2017-11-10T17:01:03.121Z,6.40
2017-11-10T17:03:36.192Z,6.40
2017-11-10T17:06:09.417Z,6.30
2017-11-10T17:08:42.659Z,6.30
2017-11-10T17:11:15.991Z,6.30
2017-11-10T17:13:49.250Z,6.30
2017-11-10T17:16:22.528Z,6.30
2017-11-10T17:18:56.244Z,6.30
2017-11-10T17:21:29.537Z,6.30
2017-11-10T17:24:02.823Z,6.30
2017-11-10T17:26:36.774Z,6.30
2017-11-10T17:29:09.996Z,6.30
2017-11-10T17:31:43.201Z,6.30
2017-11-10T17:34:16.629Z,6.30
2017-11-10T17:36:49.795Z,6.40
2017-11-10T17:39:23.735Z,6.30
2017-11-10T17:41:57.035Z,6.30
2017-11-10T17:44:30.217Z,6.30
2017-11-10T17:47:03.564Z,6.40
2017-11-10T17:49:36.869Z,6.50
2017-11-10T17:52:10.074Z,6.40
2017-11-10T17:54:43.257Z,6.40
2017-11-10T17:57:16.514Z,6.50
2017-11-10T17:59:49.763Z,6.40
2017-11-10T18:02:23.003Z,6.50
2017-11-10T18:04:56.228Z,6.50
2017-11-10T18:07:29.351Z,6.40
2017-11-10T18:10:02.594Z,6.40
2017-11-10T18:12:35.835Z,6.50
2017-11-10T18:15:09.042Z,6.60
2017-11-10T18:17:42.074Z,6.70
2017-11-10T18:20:15.398Z,6.70
2017-11-10T18:22:48.713Z,6.70
2017-11-10T18:25:22.018Z,6.60
2017-11-10T18:27:55.252Z,6.40
2017-11-10T18:30:28.497Z,6.40
2017-11-10T18:33:01.641Z,6.40
2017-11-10T18:35:34.905Z,6.50
2017-11-10T18:38:08.133Z,6.50
2017-11-10T18:40:41.371Z,6.60
2017-11-10T18:43:14.562Z,6.70
2017-11-10T18:45:48.400Z,6.50
2017-11-10T18:48:37.178Z,6.50
2017-11-10T18:51:10.411Z,6.40
2017-11-10T18:53:44.515Z,6.20
2017-11-10T18:56:17.914Z,6.20
2017-11-10T18:58:51.087Z,6.20
2017-11-10T19:01:24.299Z,6.20
2017-11-10T19:03:57.382Z,6.20
2017-11-10T19:06:30.648Z,6.20
2017-11-10T19:09:03.761Z,6.20
2017-11-10T19:11:37.116Z,6.20
2017-11-10T19:14:10.498Z,6.30
2017-11-10T19:16:51.088Z,6.30
2017-11-10T19:19:30.234Z,6.30
2017-11-10T19:22:08.230Z,6.20
2017-11-10T19:24:43.676Z,6.20
2017-11-10T19:27:21.233Z,6.20
2017-11-10T19:29:58.923Z,6.20
2017-11-10T19:32:45.245Z,6.20
2017-11-10T19:38:05.799Z,6.30
2017-11-10T19:43:28.233Z,6.30
2017-11-10T19:46:12.144Z,6.30
2017-11-10T20:00:03.580Z,6.30
2017-11-10T20:05:30.688Z,6.30
2017-11-10T20:08:07.971Z,6.30
2017-11-10T20:10:53.577Z,6.30
2017-11-10T20:13:32.233Z,6.30
2017-11-10T20:16:13.257Z,6.30
2017-11-10T20:18:50.573Z,6.30
2017-11-10T20:21:31.648Z,6.40
2017-11-10T20:24:08.813Z,6.30
2017-11-10T20:27:00.693Z,6.30
2017-11-10T20:29:44.230Z,6.30
2017-11-10T20:32:24.247Z,6.30
2017-11-10T20:37:55.861Z,6.50
2017-11-10T20:43:12.864Z,6.50
2017-11-10T20:46:09.131Z,6.50
2017-11-10T20:48:48.747Z,6.40
2017-11-10T20:54:12.067Z,6.50
2017-11-10T20:56:54.630Z,6.50
2017-11-10T20:59:42.775Z,6.60
2017-11-10T21:05:02.820Z,6.50
2017-11-10T21:07:42.518Z,6.50
2017-11-10T21:10:19.918Z,6.60
2017-11-10T21:12:57.922Z,6.60
2017-11-10T21:15:33.697Z,6.70
2017-11-10T21:18:14.870Z,6.70
2017-11-10T21:20:50.241Z,6.70
2017-11-10T21:23:40.453Z,6.70
2017-11-10T21:26:15.496Z,6.70
2017-11-10T21:29:01.342Z,6.70
2017-11-10T21:31:37.677Z,6.60
2017-11-10T21:34:45.569Z,6.60
2017-11-10T21:37:26.332Z,6.60
2017-11-10T21:40:09.443Z,6.50
2017-11-10T21:42:46.712Z,6.50
2017-11-10T21:45:21.926Z,6.40
2017-11-10T21:48:04.891Z,6.40
2017-11-10T21:50:45.651Z,6.40
2017-11-10T21:56:07.978Z,6.30
2017-11-10T21:58:42.928Z,6.30
2017-11-10T22:01:21.356Z,6.30
2017-11-10T22:04:06.846Z,6.30
2017-11-10T22:07:06.344Z,6.30
2017-11-10T22:09:53.980Z,6.30
2017-11-10T22:12:40.958Z,6.30
2017-11-10T22:15:24.512Z,6.30
2017-11-10T22:18:20.643Z,6.20
2017-11-10T22:21:02.048Z,6.20
2017-11-10T22:23:45.460Z,6.20
2017-11-10T22:26:26.695Z,6.20
2017-11-10T22:29:09.678Z,6.20
2017-11-10T22:31:50.925Z,6.20
2017-11-10T22:34:31.695Z,6.20
2017-11-10T22:37:11.277Z,6.30
2017-11-10T22:39:52.812Z,6.30
2017-11-10T22:42:29.305Z,6.30
2017-11-10T22:47:51.868Z,6.30
2017-11-10T22:53:43.019Z,6.30
2017-11-10T22:59:02.684Z,6.30
2017-11-10T23:01:39.788Z,6.30
2017-11-10T23:04:19.854Z,6.30
2017-11-10T23:09:43.617Z,6.40
2017-11-10T23:12:22.659Z,6.50
2017-11-10T23:15:23.423Z,6.50
2017-11-10T23:18:02.483Z,6.50
2017-11-10T23:20:42.892Z,6.50
2017-11-10T23:27:06.365Z,6.60
2017-11-10T23:32:37.183Z,6.60
2017-11-10T23:35:19.610Z,6.70
2017-11-10T23:38:01.141Z,6.70
2017-11-10T23:43:40.971Z,6.70
2017-11-10T23:46:16.569Z,6.70
2017-11-10T23:49:05.472Z,6.70
2017-11-10T23:54:50.155Z,6.70
2017-11-10T23:57:53.305Z,6.70
